sensor_id;sensor_type;location;lat;lon;timestamp;temperature;humidity
52267;DHT22;38223;50.940;4.034;2023-05-29T00:01:07;15.00;99.90
52267;DHT22;38223;50.940;4.034;2023-05-29T00:03:41;15.00;99.90
52267;DHT22;38223;50.940;4.034;2023-05-29T00:06:13;15.00;99.90
52267;DHT22;38223;50.940;4.034;2023-05-29T00:08:48;14.90;99.90
52267;DHT22;38223;50.940;4.034;2023-05-29T00:11:17;14.80;99.90
52267;DHT22;38223;50.940;4.034;2023-05-29T00:13:49;14.80;99.90
52267;DHT22;38223;50.940;4.034;2023-05-29T00:16:20;14.70;99.90
52267;DHT22;38223;50.940;4.034;2023-05-29T00:18:54;14.60;99.90
52267;DHT22;38223;50.940;4.034;2023-05-29T00:21:26;14.50;99.90
52267;DHT22;38223;50.940;4.034;2023-05-29T00:23:59;14.50;99.90
52267;DHT22;38223;50.940;4.034;2023-05-29T00:26:28;14.30;99.90
52267;DHT22;38223;50.940;4.034;2023-05-29T00:29:05;14.40;99.90
52267;DHT22;38223;50.940;4.034;2023-05-29T00:31:33;14.40;99.90
52267;DHT22;38223;50.940;4.034;2023-05-29T00:34:07;14.50;99.90
52267;DHT22;38223;50.940;4.034;2023-05-29T00:36:36;14.30;99.90
52267;DHT22;38223;50.940;4.034;2023-05-29T00:39:05;14.30;99.90
52267;DHT22;38223;50.940;4.034;2023-05-29T00:41:40;14.30;99.90
52267;DHT22;38223;50.940;4.034;2023-05-29T00:44:10;14.20;99.90
52267;DHT22;38223;50.940;4.034;2023-05-29T00:46:41;14.30;99.90
52267;DHT22;38223;50.940;4.034;2023-05-29T00:49:16;14.30;99.90
52267;DHT22;38223;50.940;4.034;2023-05-29T00:51:45;14.20;99.90
52267;DHT22;38223;50.940;4.034;2023-05-29T00:54:20;14.10;99.90
52267;DHT22;38223;50.940;4.034;2023-05-29T00:56:52;14.10;99.90
52267;DHT22;38223;50.940;4.034;2023-05-29T00:59:25;14.10;99.90
52267;DHT22;38223;50.940;4.034;2023-05-29T01:01:59;14.10;99.90
52267;DHT22;38223;50.940;4.034;2023-05-29T01:04:31;14.00;99.90
52267;DHT22;38223;50.940;4.034;2023-05-29T01:07:03;14.00;99.90
52267;DHT22;38223;50.940;4.034;2023-05-29T01:09:42;13.90;99.90
52267;DHT22;38223;50.940;4.034;2023-05-29T01:12:32;13.90;99.90
52267;DHT22;38223;50.940;4.034;2023-05-29T01:18:04;13.90;99.90
52267;DHT22;38223;50.940;4.034;2023-05-29T01:20:49;13.80;99.90
52267;DHT22;38223;50.940;4.034;2023-05-29T01:24:03;13.80;99.90
52267;DHT22;38223;50.940;4.034;2023-05-29T01:29:00;13.70;99.90
52267;DHT22;38223;50.940;4.034;2023-05-29T01:31:32;13.70;99.90
52267;DHT22;38223;50.940;4.034;2023-05-29T01:34:08;13.60;99.90
52267;DHT22;38223;50.940;4.034;2023-05-29T01:36:40;13.70;99.90
52267;DHT22;38223;50.940;4.034;2023-05-29T01:39:13;13.70;99.90
52267;DHT22;38223;50.940;4.034;2023-05-29T01:41:43;13.50;99.90
52267;DHT22;38223;50.940;4.034;2023-05-29T01:44:19;13.50;99.90
52267;DHT22;38223;50.940;4.034;2023-05-29T01:46:49;13.40;99.90
52267;DHT22;38223;50.940;4.034;2023-05-29T01:49:26;13.40;99.90
52267;DHT22;38223;50.940;4.034;2023-05-29T01:51:59;13.40;99.90
52267;DHT22;38223;50.940;4.034;2023-05-29T01:54:32;13.40;99.90
52267;DHT22;38223;50.940;4.034;2023-05-29T01:57:03;13.30;99.90
52267;DHT22;38223;50.940;4.034;2023-05-29T01:59:40;13.30;99.90
52267;DHT22;38223;50.940;4.034;2023-05-29T02:02:21;13.20;99.90
52267;DHT22;38223;50.940;4.034;2023-05-29T02:05:09;13.20;99.90
52267;DHT22;38223;50.940;4.034;2023-05-29T02:07:48;13.10;99.90
52267;DHT22;38223;50.940;4.034;2023-05-29T02:10:23;13.20;99.90
52267;DHT22;38223;50.940;4.034;2023-05-29T02:13:09;13.20;99.90
52267;DHT22;38223;50.940;4.034;2023-05-29T02:15:46;13.10;99.90
52267;DHT22;38223;50.940;4.034;2023-05-29T02:18:29;13.00;99.90
52267;DHT22;38223;50.940;4.034;2023-05-29T02:21:02;13.00;99.90
52267;DHT22;38223;50.940;4.034;2023-05-29T02:23:40;12.90;99.90
52267;DHT22;38223;50.940;4.034;2023-05-29T02:26:19;12.80;99.90
52267;DHT22;38223;50.940;4.034;2023-05-29T02:28:57;12.90;99.90
52267;DHT22;38223;50.940;4.034;2023-05-29T02:31:36;12.90;99.90
52267;DHT22;38223;50.940;4.034;2023-05-29T02:34:16;12.90;99.90
52267;DHT22;38223;50.940;4.034;2023-05-29T02:36:50;12.90;99.90
52267;DHT22;38223;50.940;4.034;2023-05-29T02:39:25;12.90;99.90
52267;DHT22;38223;50.940;4.034;2023-05-29T02:42:08;12.80;99.90
52267;DHT22;38223;50.940;4.034;2023-05-29T02:44:39;12.80;99.90
52267;DHT22;38223;50.940;4.034;2023-05-29T02:47:14;12.80;99.90
52267;DHT22;38223;50.940;4.034;2023-05-29T02:49:54;12.70;99.90
52267;DHT22;38223;50.940;4.034;2023-05-29T02:52:30;12.60;99.90
52267;DHT22;38223;50.940;4.034;2023-05-29T02:55:09;12.70;99.90
52267;DHT22;38223;50.940;4.034;2023-05-29T02:57:53;12.70;99.90
52267;DHT22;38223;50.940;4.034;2023-05-29T03:00:25;12.70;99.90
52267;DHT22;38223;50.940;4.034;2023-05-29T03:03:04;12.70;99.90
52267;DHT22;38223;50.940;4.034;2023-05-29T03:05:38;12.70;99.90
52267;DHT22;38223;50.940;4.034;2023-05-29T03:08:17;12.60;99.90
52267;DHT22;38223;50.940;4.034;2023-05-29T03:10:51;12.60;99.90
52267;DHT22;38223;50.940;4.034;2023-05-29T03:13:28;12.50;99.90
52267;DHT22;38223;50.940;4.034;2023-05-29T03:16:07;12.50;99.90
52267;DHT22;38223;50.940;4.034;2023-05-29T03:18:49;12.40;99.90
52267;DHT22;38223;50.940;4.034;2023-05-29T03:21:21;12.50;99.90
52267;DHT22;38223;50.940;4.034;2023-05-29T03:23:52;12.50;99.90
52267;DHT22;38223;50.940;4.034;2023-05-29T03:26:39;12.50;99.90
52267;DHT22;38223;50.940;4.034;2023-05-29T03:29:12;12.50;99.90
52267;DHT22;38223;50.940;4.034;2023-05-29T03:31:54;12.40;99.90
52267;DHT22;38223;50.940;4.034;2023-05-29T03:34:29;12.30;99.90
52267;DHT22;38223;50.940;4.034;2023-05-29T03:37:20;12.30;99.90
52267;DHT22;38223;50.940;4.034;2023-05-29T03:39:53;12.40;99.90
52267;DHT22;38223;50.940;4.034;2023-05-29T03:42:31;12.50;99.90
52267;DHT22;38223;50.940;4.034;2023-05-29T03:45:08;12.40;99.90
52267;DHT22;38223;50.940;4.034;2023-05-29T03:47:47;12.30;99.90
52267;DHT22;38223;50.940;4.034;2023-05-29T03:50:28;12.30;99.90
52267;DHT22;38223;50.940;4.034;2023-05-29T03:52:57;12.30;99.90
52267;DHT22;38223;50.940;4.034;2023-05-29T03:55:31;12.30;99.90
52267;DHT22;38223;50.940;4.034;2023-05-29T03:58:10;12.20;99.90
52267;DHT22;38223;50.940;4.034;2023-05-29T04:00:48;12.20;99.90
52267;DHT22;38223;50.940;4.034;2023-05-29T04:03:21;12.30;99.90
52267;DHT22;38223;50.940;4.034;2023-05-29T04:05:57;12.30;99.90
52267;DHT22;38223;50.940;4.034;2023-05-29T04:08:32;12.20;99.90
52267;DHT22;38223;50.940;4.034;2023-05-29T04:11:16;12.30;99.90
52267;DHT22;38223;50.940;4.034;2023-05-29T04:13:55;12.20;99.90
52267;DHT22;38223;50.940;4.034;2023-05-29T04:16:33;12.20;99.90
52267;DHT22;38223;50.940;4.034;2023-05-29T04:19:08;12.20;99.90
52267;DHT22;38223;50.940;4.034;2023-05-29T04:22:09;12.20;99.90
52267;DHT22;38223;50.940;4.034;2023-05-29T04:24:46;12.10;99.90
52267;DHT22;38223;50.940;4.034;2023-05-29T04:27:18;11.90;99.90
52267;DHT22;38223;50.940;4.034;2023-05-29T04:30:03;11.90;99.90
52267;DHT22;38223;50.940;4.034;2023-05-29T04:32:48;11.90;99.90
52267;DHT22;38223;50.940;4.034;2023-05-29T04:35:24;11.90;99.90
52267;DHT22;38223;50.940;4.034;2023-05-29T04:38:04;11.90;99.90
52267;DHT22;38223;50.940;4.034;2023-05-29T04:40:42;11.90;99.90
52267;DHT22;38223;50.940;4.034;2023-05-29T04:43:17;12.00;99.90
52267;DHT22;38223;50.940;4.034;2023-05-29T04:45:55;12.10;99.90
52267;DHT22;38223;50.940;4.034;2023-05-29T04:48:24;12.00;99.90
52267;DHT22;38223;50.940;4.034;2023-05-29T04:50:58;12.00;99.90
52267;DHT22;38223;50.940;4.034;2023-05-29T04:53:35;12.00;99.90
52267;DHT22;38223;50.940;4.034;2023-05-29T04:56:09;12.00;99.90
52267;DHT22;38223;50.940;4.034;2023-05-29T04:58:45;12.00;99.90
52267;DHT22;38223;50.940;4.034;2023-05-29T05:01:16;12.00;99.90
52267;DHT22;38223;50.940;4.034;2023-05-29T05:03:53;12.10;99.90
52267;DHT22;38223;50.940;4.034;2023-05-29T05:06:36;12.10;99.90
52267;DHT22;38223;50.940;4.034;2023-05-29T05:09:10;12.10;99.90
52267;DHT22;38223;50.940;4.034;2023-05-29T05:11:43;12.10;99.90
52267;DHT22;38223;50.940;4.034;2023-05-29T05:14:14;12.20;99.90
52267;DHT22;38223;50.940;4.034;2023-05-29T05:16:49;12.10;99.90
52267;DHT22;38223;50.940;4.034;2023-05-29T05:19:22;12.30;99.90
52267;DHT22;38223;50.940;4.034;2023-05-29T05:21:54;12.30;99.90
52267;DHT22;38223;50.940;4.034;2023-05-29T05:24:24;12.20;99.90
52267;DHT22;38223;50.940;4.034;2023-05-29T05:26:56;12.10;99.90
52267;DHT22;38223;50.940;4.034;2023-05-29T05:29:34;12.10;99.90
52267;DHT22;38223;50.940;4.034;2023-05-29T05:32:04;12.10;99.90
52267;DHT22;38223;50.940;4.034;2023-05-29T05:34:38;12.10;99.90
52267;DHT22;38223;50.940;4.034;2023-05-29T05:37:12;12.20;99.90
52267;DHT22;38223;50.940;4.034;2023-05-29T05:39:43;12.40;99.90
52267;DHT22;38223;50.940;4.034;2023-05-29T05:42:15;12.30;99.90
52267;DHT22;38223;50.940;4.034;2023-05-29T05:44:50;12.20;99.90
52267;DHT22;38223;50.940;4.034;2023-05-29T05:47:21;12.10;99.90
52267;DHT22;38223;50.940;4.034;2023-05-29T05:49:57;12.20;99.90
52267;DHT22;38223;50.940;4.034;2023-05-29T05:52:26;12.20;99.90
52267;DHT22;38223;50.940;4.034;2023-05-29T05:55:00;12.20;99.90
52267;DHT22;38223;50.940;4.034;2023-05-29T05:57:30;12.30;99.90
52267;DHT22;38223;50.940;4.034;2023-05-29T06:00:05;12.40;99.90
52267;DHT22;38223;50.940;4.034;2023-05-29T06:02:41;12.40;99.90
52267;DHT22;38223;50.940;4.034;2023-05-29T06:05:19;12.20;99.90
52267;DHT22;38223;50.940;4.034;2023-05-29T06:07:47;12.20;99.90
52267;DHT22;38223;50.940;4.034;2023-05-29T06:10:21;12.20;99.90
52267;DHT22;38223;50.940;4.034;2023-05-29T06:12:54;12.20;99.90
52267;DHT22;38223;50.940;4.034;2023-05-29T06:15:21;12.20;99.90
52267;DHT22;38223;50.940;4.034;2023-05-29T06:17:52;12.20;99.90
52267;DHT22;38223;50.940;4.034;2023-05-29T06:20:27;12.40;99.90
52267;DHT22;38223;50.940;4.034;2023-05-29T06:22:56;12.60;99.90
52267;DHT22;38223;50.940;4.034;2023-05-29T06:25:30;12.70;99.90
52267;DHT22;38223;50.940;4.034;2023-05-29T06:28:02;12.70;99.90
52267;DHT22;38223;50.940;4.034;2023-05-29T06:30:33;12.70;99.90
52267;DHT22;38223;50.940;4.034;2023-05-29T06:33:04;12.60;99.90
52267;DHT22;38223;50.940;4.034;2023-05-29T06:35:34;12.60;99.90
52267;DHT22;38223;50.940;4.034;2023-05-29T06:38:04;12.60;99.90
52267;DHT22;38223;50.940;4.034;2023-05-29T06:40:34;12.60;99.90
52267;DHT22;38223;50.940;4.034;2023-05-29T06:43:03;12.70;99.90
52267;DHT22;38223;50.940;4.034;2023-05-29T06:45:33;12.80;99.90
52267;DHT22;38223;50.940;4.034;2023-05-29T06:48:04;12.90;99.90
52267;DHT22;38223;50.940;4.034;2023-05-29T06:50:32;13.00;99.90
52267;DHT22;38223;50.940;4.034;2023-05-29T06:53:06;13.00;99.90
52267;DHT22;38223;50.940;4.034;2023-05-29T06:55:34;13.00;99.90
52267;DHT22;38223;50.940;4.034;2023-05-29T06:58:05;13.00;99.90
52267;DHT22;38223;50.940;4.034;2023-05-29T07:00:39;13.00;99.90
52267;DHT22;38223;50.940;4.034;2023-05-29T07:03:12;13.20;99.90
52267;DHT22;38223;50.940;4.034;2023-05-29T07:05:42;13.20;99.90
52267;DHT22;38223;50.940;4.034;2023-05-29T07:08:19;13.30;99.90
52267;DHT22;38223;50.940;4.034;2023-05-29T07:10:48;13.40;99.90
52267;DHT22;38223;50.940;4.034;2023-05-29T07:13:21;13.50;99.90
52267;DHT22;38223;50.940;4.034;2023-05-29T07:15:54;13.40;99.90
52267;DHT22;38223;50.940;4.034;2023-05-29T07:18:25;13.40;99.90
52267;DHT22;38223;50.940;4.034;2023-05-29T07:21:00;13.50;99.90
52267;DHT22;38223;50.940;4.034;2023-05-29T07:23:32;13.40;99.90
52267;DHT22;38223;50.940;4.034;2023-05-29T07:25:59;13.50;99.90
52267;DHT22;38223;50.940;4.034;2023-05-29T07:28:30;13.60;99.90
52267;DHT22;38223;50.940;4.034;2023-05-29T07:30:59;13.70;99.90
52267;DHT22;38223;50.940;4.034;2023-05-29T07:33:33;13.70;99.90
52267;DHT22;38223;50.940;4.034;2023-05-29T07:36:01;13.70;99.90
52267;DHT22;38223;50.940;4.034;2023-05-29T07:38:33;13.80;99.90
52267;DHT22;38223;50.940;4.034;2023-05-29T07:41:03;13.80;99.90
52267;DHT22;38223;50.940;4.034;2023-05-29T07:43:31;13.80;99.90
52267;DHT22;38223;50.940;4.034;2023-05-29T07:46:05;13.70;99.90
52267;DHT22;38223;50.940;4.034;2023-05-29T07:48:37;13.90;99.90
52267;DHT22;38223;50.940;4.034;2023-05-29T07:51:09;14.00;99.90
52267;DHT22;38223;50.940;4.034;2023-05-29T07:53:43;14.10;99.90
52267;DHT22;38223;50.940;4.034;2023-05-29T07:56:11;14.20;99.90
52267;DHT22;38223;50.940;4.034;2023-05-29T07:58:42;14.10;99.90
52267;DHT22;38223;50.940;4.034;2023-05-29T08:01:14;14.20;99.90
52267;DHT22;38223;50.940;4.034;2023-05-29T08:03:47;14.10;99.90
52267;DHT22;38223;50.940;4.034;2023-05-29T08:06:17;14.20;99.90
52267;DHT22;38223;50.940;4.034;2023-05-29T08:08:48;14.20;99.90
52267;DHT22;38223;50.940;4.034;2023-05-29T08:11:20;14.20;99.90
52267;DHT22;38223;50.940;4.034;2023-05-29T08:13:51;14.20;99.90
52267;DHT22;38223;50.940;4.034;2023-05-29T08:16:21;14.40;99.90
52267;DHT22;38223;50.940;4.034;2023-05-29T08:18:52;14.40;99.90
52267;DHT22;38223;50.940;4.034;2023-05-29T08:21:22;14.50;99.90
52267;DHT22;38223;50.940;4.034;2023-05-29T08:23:51;14.50;99.90
52267;DHT22;38223;50.940;4.034;2023-05-29T08:26:24;14.50;99.90
52267;DHT22;38223;50.940;4.034;2023-05-29T08:28:56;14.40;99.90
52267;DHT22;38223;50.940;4.034;2023-05-29T08:31:28;14.50;99.90
52267;DHT22;38223;50.940;4.034;2023-05-29T08:34:00;14.60;99.90
52267;DHT22;38223;50.940;4.034;2023-05-29T08:36:34;14.60;99.90
52267;DHT22;38223;50.940;4.034;2023-05-29T08:39:04;14.60;99.90
52267;DHT22;38223;50.940;4.034;2023-05-29T08:44:16;15.00;99.90
52267;DHT22;38223;50.940;4.034;2023-05-29T08:46:55;14.90;99.90
52267;DHT22;38223;50.940;4.034;2023-05-29T08:49:27;14.80;99.90
52267;DHT22;38223;50.940;4.034;2023-05-29T08:52:06;15.00;99.90
52267;DHT22;38223;50.940;4.034;2023-05-29T08:54:33;15.00;99.90
52267;DHT22;38223;50.940;4.034;2023-05-29T08:57:06;15.00;99.90
52267;DHT22;38223;50.940;4.034;2023-05-29T08:59:45;15.00;99.90
52267;DHT22;38223;50.940;4.034;2023-05-29T09:02:13;15.00;99.90
52267;DHT22;38223;50.940;4.034;2023-05-29T09:04:47;15.20;99.90
52267;DHT22;38223;50.940;4.034;2023-05-29T09:07:16;15.30;99.90
52267;DHT22;38223;50.940;4.034;2023-05-29T09:09:48;15.40;99.90
52267;DHT22;38223;50.940;4.034;2023-05-29T09:12:21;15.50;99.90
52267;DHT22;38223;50.940;4.034;2023-05-29T09:14:54;15.60;99.90
52267;DHT22;38223;50.940;4.034;2023-05-29T09:17:24;15.50;99.90
52267;DHT22;38223;50.940;4.034;2023-05-29T09:19:57;15.60;99.90
52267;DHT22;38223;50.940;4.034;2023-05-29T09:22:27;15.60;99.90
52267;DHT22;38223;50.940;4.034;2023-05-29T09:24:57;15.60;99.90
52267;DHT22;38223;50.940;4.034;2023-05-29T09:27:25;15.70;99.90
52267;DHT22;38223;50.940;4.034;2023-05-29T09:29:53;15.90;99.90
52267;DHT22;38223;50.940;4.034;2023-05-29T09:32:27;15.80;99.90
52267;DHT22;38223;50.940;4.034;2023-05-29T09:35:00;15.80;99.90
52267;DHT22;38223;50.940;4.034;2023-05-29T09:37:28;15.90;99.90
52267;DHT22;38223;50.940;4.034;2023-05-29T09:39:55;15.80;99.90
52267;DHT22;38223;50.940;4.034;2023-05-29T09:42:29;16.00;99.90
52267;DHT22;38223;50.940;4.034;2023-05-29T09:45:03;16.10;99.90
52267;DHT22;38223;50.940;4.034;2023-05-29T09:47:37;16.20;99.90
52267;DHT22;38223;50.940;4.034;2023-05-29T09:50:09;16.30;99.90
52267;DHT22;38223;50.940;4.034;2023-05-29T09:52:48;16.40;99.90
52267;DHT22;38223;50.940;4.034;2023-05-29T09:55:18;16.30;99.90
52267;DHT22;38223;50.940;4.034;2023-05-29T09:57:54;16.20;99.90
52267;DHT22;38223;50.940;4.034;2023-05-29T10:00:42;16.30;99.90
52267;DHT22;38223;50.940;4.034;2023-05-29T10:03:15;16.40;99.90
52267;DHT22;38223;50.940;4.034;2023-05-29T10:05:46;16.60;99.90
52267;DHT22;38223;50.940;4.034;2023-05-29T10:08:19;16.50;99.90
52267;DHT22;38223;50.940;4.034;2023-05-29T10:11:01;16.40;99.90
52267;DHT22;38223;50.940;4.034;2023-05-29T10:13:36;16.50;99.90
52267;DHT22;38223;50.940;4.034;2023-05-29T10:16:07;16.50;99.90
52267;DHT22;38223;50.940;4.034;2023-05-29T10:18:47;16.60;99.90
52267;DHT22;38223;50.940;4.034;2023-05-29T10:21:19;16.50;99.90
52267;DHT22;38223;50.940;4.034;2023-05-29T10:23:49;16.60;99.90
52267;DHT22;38223;50.940;4.034;2023-05-29T10:26:28;16.60;99.90
52267;DHT22;38223;50.940;4.034;2023-05-29T10:29:09;16.80;99.90
52267;DHT22;38223;50.940;4.034;2023-05-29T10:37:46;16.90;99.90
52267;DHT22;38223;50.940;4.034;2023-05-29T10:40:15;16.80;99.90
52267;DHT22;38223;50.940;4.034;2023-05-29T10:42:54;17.00;99.90
52267;DHT22;38223;50.940;4.034;2023-05-29T10:50:54;17.00;99.90
52267;DHT22;38223;50.940;4.034;2023-05-29T10:53:30;17.10;99.90
52267;DHT22;38223;50.940;4.034;2023-05-29T10:56:01;17.20;99.90
52267;DHT22;38223;50.940;4.034;2023-05-29T10:58:32;17.20;99.90
52267;DHT22;38223;50.940;4.034;2023-05-29T11:01:00;17.20;99.90
52267;DHT22;38223;50.940;4.034;2023-05-29T11:03:33;17.10;99.90
52267;DHT22;38223;50.940;4.034;2023-05-29T11:06:18;17.20;99.90
52267;DHT22;38223;50.940;4.034;2023-05-29T11:08:53;17.30;99.90
52267;DHT22;38223;50.940;4.034;2023-05-29T11:11:32;17.40;99.90
52267;DHT22;38223;50.940;4.034;2023-05-29T11:14:06;17.40;99.90
52267;DHT22;38223;50.940;4.034;2023-05-29T11:19:05;17.40;99.90
52267;DHT22;38223;50.940;4.034;2023-05-29T11:22:04;17.50;99.90
52267;DHT22;38223;50.940;4.034;2023-05-29T11:24:30;17.70;99.90
52267;DHT22;38223;50.940;4.034;2023-05-29T11:27:05;17.80;99.90
52267;DHT22;38223;50.940;4.034;2023-05-29T11:29:39;17.80;99.90
52267;DHT22;38223;50.940;4.034;2023-05-29T11:32:08;17.90;99.90
52267;DHT22;38223;50.940;4.034;2023-05-29T11:34:56;17.90;99.90
52267;DHT22;38223;50.940;4.034;2023-05-29T11:37:25;18.00;99.90
52267;DHT22;38223;50.940;4.034;2023-05-29T11:39:53;17.90;99.90
52267;DHT22;38223;50.940;4.034;2023-05-29T11:42:21;17.90;99.90
52267;DHT22;38223;50.940;4.034;2023-05-29T11:44:48;18.00;99.90
52267;DHT22;38223;50.940;4.034;2023-05-29T11:47:24;18.00;99.90
52267;DHT22;38223;50.940;4.034;2023-05-29T11:49:57;18.10;99.90
52267;DHT22;38223;50.940;4.034;2023-05-29T11:52:27;18.20;99.90
52267;DHT22;38223;50.940;4.034;2023-05-29T11:54:55;18.10;99.90
52267;DHT22;38223;50.940;4.034;2023-05-29T11:57:27;18.30;99.90
52267;DHT22;38223;50.940;4.034;2023-05-29T11:59:56;18.40;99.90
52267;DHT22;38223;50.940;4.034;2023-05-29T12:02:25;18.60;99.90
52267;DHT22;38223;50.940;4.034;2023-05-29T12:05:04;18.60;99.90
52267;DHT22;38223;50.940;4.034;2023-05-29T12:07:35;18.60;99.90
52267;DHT22;38223;50.940;4.034;2023-05-29T12:10:18;18.50;99.90
52267;DHT22;38223;50.940;4.034;2023-05-29T12:13:01;18.50;99.90
52267;DHT22;38223;50.940;4.034;2023-05-29T12:15:27;18.50;99.90
52267;DHT22;38223;50.940;4.034;2023-05-29T12:17:57;18.70;99.90
52267;DHT22;38223;50.940;4.034;2023-05-29T12:20:30;18.80;99.90
52267;DHT22;38223;50.940;4.034;2023-05-29T12:23:04;18.70;99.90
52267;DHT22;38223;50.940;4.034;2023-05-29T12:25:36;18.70;99.90
52267;DHT22;38223;50.940;4.034;2023-05-29T12:28:04;18.90;99.90
52267;DHT22;38223;50.940;4.034;2023-05-29T12:30:37;18.80;99.90
52267;DHT22;38223;50.940;4.034;2023-05-29T12:33:09;18.80;99.90
52267;DHT22;38223;50.940;4.034;2023-05-29T12:35:45;18.90;99.90
52267;DHT22;38223;50.940;4.034;2023-05-29T12:38:18;18.90;99.90
52267;DHT22;38223;50.940;4.034;2023-05-29T12:40:48;18.90;99.90
52267;DHT22;38223;50.940;4.034;2023-05-29T12:43:21;18.80;99.90
52267;DHT22;38223;50.940;4.034;2023-05-29T12:45:55;18.90;99.90
52267;DHT22;38223;50.940;4.034;2023-05-29T12:48:29;19.00;99.90
52267;DHT22;38223;50.940;4.034;2023-05-29T12:51:04;18.90;99.90
52267;DHT22;38223;50.940;4.034;2023-05-29T12:53:38;18.80;99.90
52267;DHT22;38223;50.940;4.034;2023-05-29T12:56:06;18.80;99.90
52267;DHT22;38223;50.940;4.034;2023-05-29T12:58:34;18.80;99.90
52267;DHT22;38223;50.940;4.034;2023-05-29T13:01:02;18.90;99.90
52267;DHT22;38223;50.940;4.034;2023-05-29T13:03:29;18.90;99.90
52267;DHT22;38223;50.940;4.034;2023-05-29T13:05:58;19.10;99.90
52267;DHT22;38223;50.940;4.034;2023-05-29T13:08:32;19.20;99.90
52267;DHT22;38223;50.940;4.034;2023-05-29T13:11:02;19.00;99.90
52267;DHT22;38223;50.940;4.034;2023-05-29T13:13:34;19.10;99.90
52267;DHT22;38223;50.940;4.034;2023-05-29T13:16:03;19.10;99.90
52267;DHT22;38223;50.940;4.034;2023-05-29T13:18:31;19.10;99.90
52267;DHT22;38223;50.940;4.034;2023-05-29T13:21:00;19.10;99.90
52267;DHT22;38223;50.940;4.034;2023-05-29T13:23:27;19.20;99.90
52267;DHT22;38223;50.940;4.034;2023-05-29T13:25:55;19.10;99.90
52267;DHT22;38223;50.940;4.034;2023-05-29T13:28:23;19.20;99.90
52267;DHT22;38223;50.940;4.034;2023-05-29T13:30:51;19.20;99.90
52267;DHT22;38223;50.940;4.034;2023-05-29T13:33:18;19.10;99.90
52267;DHT22;38223;50.940;4.034;2023-05-29T13:35:46;19.10;99.90
52267;DHT22;38223;50.940;4.034;2023-05-29T13:38:14;19.20;99.90
52267;DHT22;38223;50.940;4.034;2023-05-29T13:40:41;19.20;99.90
52267;DHT22;38223;50.940;4.034;2023-05-29T13:43:12;19.20;99.90
52267;DHT22;38223;50.940;4.034;2023-05-29T13:45:39;19.30;99.90
52267;DHT22;38223;50.940;4.034;2023-05-29T13:48:07;19.40;99.90
52267;DHT22;38223;50.940;4.034;2023-05-29T13:50:35;19.40;99.90
52267;DHT22;38223;50.940;4.034;2023-05-29T13:53:02;19.40;99.90
52267;DHT22;38223;50.940;4.034;2023-05-29T13:55:31;19.30;99.90
52267;DHT22;38223;50.940;4.034;2023-05-29T13:57:59;19.40;99.90
52267;DHT22;38223;50.940;4.034;2023-05-29T14:00:33;19.40;99.90
52267;DHT22;38223;50.940;4.034;2023-05-29T14:03:06;19.50;99.90
52267;DHT22;38223;50.940;4.034;2023-05-29T14:05:41;19.50;99.90
52267;DHT22;38223;50.940;4.034;2023-05-29T14:08:11;19.70;99.90
52267;DHT22;38223;50.940;4.034;2023-05-29T14:13:27;19.70;99.90
52267;DHT22;38223;50.940;4.034;2023-05-29T14:15:55;19.70;99.90
52267;DHT22;38223;50.940;4.034;2023-05-29T14:18:23;19.80;99.90
52267;DHT22;38223;50.940;4.034;2023-05-29T14:20:51;19.80;99.90
52267;DHT22;38223;50.940;4.034;2023-05-29T14:23:21;19.70;99.90
52267;DHT22;38223;50.940;4.034;2023-05-29T14:25:51;19.60;99.90
52267;DHT22;38223;50.940;4.034;2023-05-29T14:28:22;19.80;99.90
52267;DHT22;38223;50.940;4.034;2023-05-29T14:30:55;19.90;99.90
52267;DHT22;38223;50.940;4.034;2023-05-29T14:33:26;19.70;99.90
52267;DHT22;38223;50.940;4.034;2023-05-29T14:35:57;19.80;99.90
52267;DHT22;38223;50.940;4.034;2023-05-29T14:38:26;19.90;99.90
52267;DHT22;38223;50.940;4.034;2023-05-29T14:40:54;19.90;99.90
52267;DHT22;38223;50.940;4.034;2023-05-29T14:43:26;20.00;99.90
52267;DHT22;38223;50.940;4.034;2023-05-29T14:45:55;19.90;99.90
52267;DHT22;38223;50.940;4.034;2023-05-29T14:48:22;19.70;99.90
52267;DHT22;38223;50.940;4.034;2023-05-29T14:50:51;19.60;99.90
52267;DHT22;38223;50.940;4.034;2023-05-29T14:53:19;19.70;99.90
52267;DHT22;38223;50.940;4.034;2023-05-29T14:55:48;19.90;99.90
52267;DHT22;38223;50.940;4.034;2023-05-29T14:58:16;19.80;99.90
52267;DHT22;38223;50.940;4.034;2023-05-29T15:00:45;19.80;99.90
52267;DHT22;38223;50.940;4.034;2023-05-29T15:03:13;19.70;99.90
52267;DHT22;38223;50.940;4.034;2023-05-29T15:05:40;19.70;99.90
52267;DHT22;38223;50.940;4.034;2023-05-29T15:08:18;19.70;99.90
52267;DHT22;38223;50.940;4.034;2023-05-29T15:10:50;19.80;99.30
52267;DHT22;38223;50.940;4.034;2023-05-29T15:13:23;19.80;99.00
52267;DHT22;38223;50.940;4.034;2023-05-29T15:15:56;19.80;97.80
52267;DHT22;38223;50.940;4.034;2023-05-29T15:18:26;19.70;97.40
52267;DHT22;38223;50.940;4.034;2023-05-29T15:20:56;19.60;96.90
52267;DHT22;38223;50.940;4.034;2023-05-29T15:23:32;19.60;96.00
52267;DHT22;38223;50.940;4.034;2023-05-29T15:26:03;19.50;95.00
52267;DHT22;38223;50.940;4.034;2023-05-29T15:28:35;19.50;94.70
52267;DHT22;38223;50.940;4.034;2023-05-29T15:31:03;19.40;94.50
52267;DHT22;38223;50.940;4.034;2023-05-29T15:33:30;19.50;94.50
52267;DHT22;38223;50.940;4.034;2023-05-29T15:35:58;19.40;94.20
52267;DHT22;38223;50.940;4.034;2023-05-29T15:38:25;19.40;94.00
52267;DHT22;38223;50.940;4.034;2023-05-29T15:40:54;19.50;93.50
52267;DHT22;38223;50.940;4.034;2023-05-29T15:43:26;19.50;93.60
52267;DHT22;38223;50.940;4.034;2023-05-29T15:45:54;19.60;93.10
52267;DHT22;38223;50.940;4.034;2023-05-29T15:48:22;19.60;93.30
52267;DHT22;38223;50.940;4.034;2023-05-29T15:50:55;19.50;93.00
52267;DHT22;38223;50.940;4.034;2023-05-29T15:53:23;19.30;93.50
52267;DHT22;38223;50.940;4.034;2023-05-29T15:55:51;19.20;94.00
52267;DHT22;38223;50.940;4.034;2023-05-29T15:58:18;19.30;93.80
52267;DHT22;38223;50.940;4.034;2023-05-29T16:00:46;19.50;93.60
52267;DHT22;38223;50.940;4.034;2023-05-29T16:03:13;19.40;93.70
52267;DHT22;38223;50.940;4.034;2023-05-29T16:05:41;19.30;93.50
52267;DHT22;38223;50.940;4.034;2023-05-29T16:08:09;19.40;93.90
52267;DHT22;38223;50.940;4.034;2023-05-29T16:10:38;19.30;93.30
52267;DHT22;38223;50.940;4.034;2023-05-29T16:13:09;19.20;93.10
52267;DHT22;38223;50.940;4.034;2023-05-29T16:15:39;19.20;92.70
52267;DHT22;38223;50.940;4.034;2023-05-29T16:18:19;19.20;92.90
52267;DHT22;38223;50.940;4.034;2023-05-29T16:20:47;19.20;92.10
52267;DHT22;38223;50.940;4.034;2023-05-29T16:23:24;19.20;91.20
52267;DHT22;38223;50.940;4.034;2023-05-29T16:25:54;19.20;91.30
52267;DHT22;38223;50.940;4.034;2023-05-29T16:28:25;19.20;90.90
52267;DHT22;38223;50.940;4.034;2023-05-29T16:31:01;19.20;90.80